Time;durP1;ratioP1;P1;durP2;ratioP2;P2;SDS_P1;SDS_P2;PMS_P1;PMS_P2;Temp;Humidity;BMP_temperature;BMP_pressure;BME280_temperature;BME280_humidity;BME280_pressure;Samples;Min_cycle;Max_cycle;Signal;HPM_P1;HPM_P2
2022/09/23 00:01:31;;;;;;;2.33;1.25;;;11.40;99.90;;;11.50;100.00;101257.88;5234247;28;20036;-84
2022/09/23 00:04:03;;;;;;;1.73;1.15;;;11.40;99.90;;;11.50;100.00;101257.88;5234433;28;20045;-84
2022/09/23 00:06:35;;;;;;;2.25;1.45;;;11.40;99.90;;;11.47;100.00;101265.59;5216266;28;20056;-83
2022/09/23 00:09:09;;;;;;;2.28;1.50;;;11.30;99.90;;;11.47;100.00;101256.88;5216071;28;20067;-82
2022/09/23 00:11:41;;;;;;;3.38;1.50;;;11.30;99.90;;;11.44;100.00;101257.66;5235284;28;20056;-83
2022/09/23 00:14:13;;;;;;;3.10;1.50;;;11.30;99.90;;;11.42;100.00;101254.09;5239558;22;20049;-81
2022/09/23 00:16:45;;;;;;;2.45;1.30;;;11.30;99.90;;;11.40;100.00;101250.50;5210714;28;20049;-80
2022/09/23 00:19:17;;;;;;;2.08;1.20;;;11.30;99.90;;;11.40;100.00;101245.28;5203134;28;20049;-81
2022/09/23 00:21:49;;;;;;;2.03;1.40;;;11.30;99.90;;;11.40;100.00;101242.69;5206109;28;20419;-80
2022/09/23 00:24:24;;;;;;;2.78;1.20;;;11.30;99.90;;;11.38;100.00;101239.13;5206490;28;20103;-80
2022/09/23 00:26:56;;;;;;;2.13;1.40;;;11.30;99.90;;;11.37;100.00;101235.63;5205250;28;20049;-79
2022/09/23 00:29:28;;;;;;;2.35;1.35;;;11.20;99.90;;;11.34;100.00;101238.13;5206159;28;20054;-80
2022/09/23 00:32:00;;;;;;;1.98;1.35;;;11.20;99.90;;;11.33;100.00;101233.72;5207120;28;20088;-80
2022/09/23 00:34:32;;;;;;;2.25;1.30;;;11.20;99.90;;;11.31;100.00;101229.28;5206852;28;20045;-80
2022/09/23 00:37:04;;;;;;;1.98;1.25;;;11.20;99.90;;;11.29;100.00;101231.84;5213005;28;20510;-80
2022/09/23 00:39:38;;;;;;;1.98;1.40;;;11.20;99.90;;;11.29;100.00;101225.75;5219780;28;20041;-79
2022/09/23 00:42:15;;;;;;;2.50;1.50;;;11.10;99.90;;;11.27;100.00;101222.16;5217728;28;20415;-81
2022/09/23 00:44:49;;;;;;;1.85;1.20;;;11.20;99.90;;;11.26;100.00;101230.81;5207225;28;20049;-81
2022/09/23 00:47:30;;;;;;;2.72;1.63;;;11.10;99.90;;;11.24;100.00;101227.28;5221604;28;20095;-81
2022/09/23 00:50:10;;;;;;;2.05;1.40;;;11.10;99.90;;;11.22;100.00;101223.72;5204873;28;20065;-81
2022/09/23 00:52:42;;;;;;;2.70;1.42;;;11.10;99.90;;;11.21;100.00;101221.94;5205037;28;20052;-79
2022/09/23 00:55:19;;;;;;;1.80;1.42;;;11.10;99.90;;;11.20;100.00;101220.16;5205694;28;20061;-82
2022/09/23 00:57:54;;;;;;;2.30;1.38;;;11.10;99.90;;;11.18;100.00;101217.50;5207720;28;20057;-79
2022/09/23 01:00:27;;;;;;;1.88;1.30;;;11.00;99.90;;;11.18;100.00;101219.22;5208609;28;20470;-79
2022/09/23 01:02:59;;;;;;;2.47;1.33;;;11.10;99.90;;;11.18;100.00;101219.22;5211744;28;20049;-79
2022/09/23 01:05:32;;;;;;;2.45;1.10;;;11.10;99.90;;;11.19;100.00;101223.59;5221221;28;20503;-80
2022/09/23 01:08:05;;;;;;;2.55;1.50;;;11.10;99.90;;;11.19;100.00;101218.38;5222023;28;20112;-80
2022/09/23 01:10:52;;;;;;;3.03;1.80;;;11.10;99.90;;;11.18;100.00;101219.22;5220513;28;20059;-79
2022/09/23 01:13:32;;;;;;;2.22;1.38;;;11.10;99.90;;;11.16;100.00;101218.28;5205040;28;20049;-81
2022/09/23 01:16:12;;;;;;;1.88;1.33;;;11.10;99.90;;;11.16;100.00;101210.44;5207238;28;20045;-80
2022/09/23 01:18:54;;;;;;;1.95;1.42;;;11.00;99.90;;;11.14;100.00;101206.03;5205351;28;20518;-79
2022/09/23 01:21:39;;;;;;;2.60;1.50;;;11.00;99.90;;;11.18;100.00;101216.59;5205749;28;20041;-80
2022/09/23 01:24:51;;;;;;;2.67;1.40;;;11.10;99.90;;;11.18;100.00;101208.78;5205683;28;20064;-81
2022/09/23 01:27:56;;;;;;;2.83;1.50;;;11.10;99.90;;;11.17;100.00;101205.28;5204044;28;20041;-79
2022/09/23 01:30:43;;;;;;;2.38;1.38;;;11.00;99.90;;;11.17;100.00;101205.28;5200166;28;20057;-80
2022/09/23 01:33:23;;;;;;;2.08;1.48;;;11.00;99.90;;;11.17;100.00;101207.00;5204979;28;20045;-79
2022/09/23 01:36:14;;;;;;;3.47;1.42;;;11.00;99.90;;;11.16;100.00;101207.84;5204480;28;20496;-79
2022/09/23 01:38:57;;;;;;;2.75;1.80;;;11.00;99.90;;;11.14;100.00;101205.13;5204274;28;20428;-79
2022/09/23 01:41:48;;;;;;;1.63;1.30;;;11.00;99.90;;;11.13;100.00;101204.25;5204355;28;20107;-80
2022/09/23 01:44:28;;;;;;;3.22;1.40;;;11.00;99.90;;;11.12;100.00;101202.47;5204040;28;20053;-80
2022/09/23 01:47:09;;;;;;;2.83;1.60;;;11.00;99.90;;;11.09;100.00;101204.09;5205568;28;20127;-79
2022/09/23 01:49:49;;;;;;;1.77;1.63;;;11.00;99.90;;;11.06;100.00;101207.47;5207590;28;20046;-80
2022/09/23 01:52:32;;;;;;;3.40;1.50;;;10.90;99.90;;;11.02;100.00;101199.44;5207572;28;20041;-80
2022/09/23 01:55:13;;;;;;;3.42;1.70;;;10.90;99.90;;;10.99;100.00;101200.22;5208981;28;20049;-79
2022/09/23 01:57:52;;;;;;;3.95;1.30;;;10.90;99.90;;;10.98;100.00;101198.44;5207953;28;20053;-79
2022/09/23 02:00:24;;;;;;;4.53;1.50;;;10.80;99.90;;;10.96;100.00;101200.13;5207851;28;20145;-81
2022/09/23 02:03:04;;;;;;;2.38;1.38;;;10.90;99.90;;;10.93;100.00;101196.47;5207441;28;20045;-80
2022/09/23 02:05:46;;;;;;;1.55;1.27;;;10.80;99.90;;;10.91;100.00;101196.44;5208009;28;20061;-80
2022/09/23 02:08:23;;;;;;;2.92;1.40;;;10.80;99.90;;;10.90;100.00;101194.66;5209303;28;20403;-82
2022/09/23 02:11:03;;;;;;;3.03;1.65;;;10.80;99.90;;;10.86;100.00;101193.63;5210013;28;20041;-80
2022/09/23 02:13:40;;;;;;;3.75;1.35;;;10.80;99.90;;;10.83;100.00;101197.84;5207378;28;20049;-80
2022/09/23 02:16:22;;;;;;;2.40;1.50;;;10.70;99.90;;;10.78;100.00;101199.38;5208432;28;20045;-80
2022/09/23 02:19:00;;;;;;;2.15;1.40;;;10.70;99.90;;;10.75;100.00;101196.63;5207855;28;20041;-80
2022/09/23 02:21:37;;;;;;;1.95;1.35;;;10.60;99.90;;;10.70;100.00;101185.16;5207454;28;20068;-82
2022/09/23 02:24:14;;;;;;;2.78;1.50;;;10.60;99.90;;;10.68;100.00;101197.22;5208464;28;20080;-81
2022/09/23 02:26:51;;;;;;;3.03;1.45;;;10.60;99.90;;;10.65;100.00;101191.88;5207357;28;20514;-79
2022/09/23 02:29:31;;;;;;;2.60;1.63;;;10.50;99.90;;;10.60;100.00;101184.75;5206768;28;20088;-80
2022/09/23 02:32:12;;;;;;;3.78;1.92;;;10.50;99.90;;;10.58;100.00;101180.31;5208726;28;20041;-80
2022/09/23 02:34:57;;;;;;;2.67;1.67;;;10.50;99.90;;;10.54;100.00;101181.88;5207465;28;20054;-79
2022/09/23 02:37:39;;;;;;;3.28;1.83;;;10.50;99.90;;;10.52;100.00;101182.66;5206979;28;20526;-80
2022/09/23 02:40:22;;;;;;;3.53;1.90;;;10.50;99.90;;;10.51;100.00;101178.28;5208773;28;20052;-80
2022/09/23 02:43:07;;;;;;;2.42;1.48;;;10.40;99.90;;;10.48;100.00;101172.94;5207043;28;20137;-80
2022/09/23 02:45:39;;;;;;;2.78;1.73;;;10.40;99.90;;;10.45;100.00;101167.59;5206875;28;20060;-79
2022/09/23 02:48:18;;;;;;;2.47;1.50;;;10.40;99.90;;;10.45;100.00;101173.72;5208802;28;20499;-80
2022/09/23 02:50:53;;;;;;;2.85;2.00;;;10.40;99.90;;;10.43;100.00;101175.38;5207614;28;20435;-80
2022/09/23 02:53:25;;;;;;;2.90;1.63;;;10.40;99.90;;;10.41;100.00;101171.78;5208356;28;20037;-79
2022/09/23 02:55:57;;;;;;;1.70;1.40;;;10.30;99.90;;;10.42;100.00;101159.66;5208238;28;20049;-79
2022/09/23 02:58:30;;;;;;;3.33;1.40;;;10.30;99.90;;;10.40;100.00;101162.19;5208053;28;20049;-79
2022/09/23 03:01:15;;;;;;;2.42;1.50;;;10.30;99.90;;;10.37;100.00;101154.28;5208349;28;20053;-80
2022/09/23 03:03:55;;;;;;;1.83;1.35;;;10.30;99.90;;;10.35;100.00;101158.50;5207585;28;20046;-80
2022/09/23 03:06:33;;;;;;;2.13;1.50;;;10.30;99.90;;;10.32;100.00;101156.69;5207986;28;20482;-80
2022/09/23 03:09:13;;;;;;;2.17;1.23;;;10.30;99.90;;;10.30;100.00;101152.19;5207655;28;20474;-80
2022/09/23 03:11:50;;;;;;;2.50;1.30;;;10.30;99.90;;;10.27;100.00;101146.88;5206117;28;20053;-82
2022/09/23 03:14:30;;;;;;;2.17;1.40;;;10.20;99.90;;;10.25;100.00;101149.44;5207641;28;20037;-79
2022/09/23 03:17:06;;;;;;;3.10;1.60;;;10.20;99.90;;;10.25;100.00;101148.53;5223587;28;20130;-81
2022/09/23 03:19:44;;;;;;;1.95;1.40;;;10.20;99.90;;;10.23;100.00;101145.84;5207201;28;20073;-79
2022/09/23 03:22:23;;;;;;;2.55;1.50;;;10.20;99.90;;;10.23;100.00;101144.97;5207401;28;20431;-80
2022/09/23 03:25:00;;;;;;;2.17;1.45;;;10.10;99.90;;;10.21;100.00;101146.59;5207982;28;20080;-79
2022/09/23 03:27:34;;;;;;;3.33;1.40;;;10.10;99.90;;;10.18;100.00;101147.38;5206010;28;20060;-80
2022/09/23 03:30:09;;;;;;;2.13;1.30;;;10.10;99.90;;;10.16;100.00;101141.19;5205671;28;20060;-79
2022/09/23 03:32:45;;;;;;;2.65;1.70;;;10.10;99.90;;;10.15;100.00;101152.44;5206981;28;20041;-80
2022/09/23 03:35:18;;;;;;;2.67;1.60;;;10.10;99.90;;;10.11;100.00;101145.34;5207253;28;20049;-81
2022/09/23 03:37:57;;;;;;;2.92;1.65;;;10.10;99.90;;;10.09;100.00;101151.28;5206304;28;20419;-81
2022/09/23 03:40:32;;;;;;;2.60;1.42;;;10.00;99.90;;;10.06;100.00;101139.91;5205657;28;20057;-77
2022/09/23 03:43:05;;;;;;;1.50;1.30;;;10.00;99.90;;;10.04;100.00;101133.75;5205493;28;20072;-80
2022/09/23 03:45:37;;;;;;;1.95;1.40;;;10.00;99.90;;;10.02;100.00;101132.78;5206943;28;20041;-80
2022/09/23 03:48:09;;;;;;;2.20;1.40;;;10.00;99.90;;;10.02;100.00;101126.69;5205319;28;20046;-79
2022/09/23 03:50:41;;;;;;;2.50;1.40;;;9.90;99.90;;;10.00;100.00;101133.56;5205620;28;20064;-81
2022/09/23 03:53:16;;;;;;;2.50;1.50;;;9.90;99.90;;;10.00;100.00;101136.16;5205923;28;20513;-80
2022/09/23 03:55:48;;;;;;;1.80;1.65;;;9.90;99.90;;;9.98;100.00;101133.50;5206642;28;20559;-80
2022/09/23 03:58:20;;;;;;;2.13;1.30;;;9.90;99.90;;;9.97;100.00;101128.22;5207212;28;20561;-80
2022/09/23 04:00:53;;;;;;;2.22;1.40;;;9.90;99.90;;;9.96;100.00;101129.91;5206941;28;20056;-79
2022/09/23 04:03:26;;;;;;;2.53;1.42;;;9.90;99.90;;;9.94;100.00;101128.97;5205238;28;20127;-79
2022/09/23 04:05:59;;;;;;;2.03;1.42;;;9.90;99.90;;;9.93;100.00;101126.31;5206344;28;20124;-79
2022/09/23 04:08:33;;;;;;;1.98;1.50;;;9.90;99.90;;;9.90;100.00;101119.25;5205253;28;20053;-79
2022/09/23 04:11:05;;;;;;;1.90;1.52;;;9.80;99.90;;;9.88;100.00;101120.91;5206167;28;20045;-79
2022/09/23 04:13:37;;;;;;;2.92;1.75;;;9.80;99.90;;;9.87;100.00;101129.53;5206345;28;20072;-79
2022/09/23 04:16:09;;;;;;;2.00;1.70;;;9.80;99.90;;;9.86;100.00;101135.59;5206774;28;20045;-79
2022/09/23 04:18:41;;;;;;;2.17;1.45;;;9.80;99.90;;;9.86;100.00;101132.97;5205218;28;20053;-80
2022/09/23 04:21:13;;;;;;;2.03;1.40;;;9.80;99.90;;;9.84;100.00;101124.19;5205678;28;20099;-80
2022/09/23 04:23:47;;;;;;;1.63;1.40;;;9.80;99.90;;;9.81;100.00;101131.88;5205611;28;20051;-81
2022/09/23 04:26:19;;;;;;;2.78;1.50;;;9.80;99.90;;;9.78;100.00;101134.38;5205242;28;20053;-80
2022/09/23 04:28:51;;;;;;;1.70;1.45;;;9.70;99.90;;;9.76;100.00;101133.38;5206727;28;20064;-80
2022/09/23 04:31:23;;;;;;;2.65;1.70;;;9.70;99.90;;;9.74;100.00;101125.53;5206035;28;20265;-80
2022/09/23 04:33:55;;;;;;;2.13;1.70;;;9.70;99.90;;;9.71;100.00;101116.66;5205282;28;20069;-80
2022/09/23 04:36:28;;;;;;;2.67;1.70;;;9.70;99.90;;;9.70;100.00;101120.09;5205759;28;20057;-81
2022/09/23 04:39:01;;;;;;;3.58;1.83;;;9.60;99.90;;;9.69;100.00;101118.31;5206394;28;20052;-81
2022/09/23 04:41:33;;;;;;;2.40;1.42;;;9.60;99.90;;;9.69;100.00;101108.81;5206721;28;20041;-79
2022/09/23 04:44:06;;;;;;;3.38;1.50;;;9.70;99.90;;;9.67;100.00;101101.78;5205536;28;20062;-81
2022/09/23 04:46:38;;;;;;;2.60;1.65;;;9.60;99.90;;;9.65;100.00;101106.00;5207130;28;20538;-81
2022/09/23 04:49:11;;;;;;;2.47;1.80;;;9.60;99.90;;;9.66;100.00;101102.59;5205921;28;20124;-81
2022/09/23 04:51:43;;;;;;;2.13;1.48;;;9.60;99.90;;;9.66;100.00;101092.19;5206789;28;20072;-81
2022/09/23 04:54:17;;;;;;;2.75;1.70;;;9.60;99.90;;;9.63;100.00;101102.44;5207192;28;20561;-79
2022/09/23 04:56:49;;;;;;;2.78;1.60;;;9.60;99.90;;;9.62;100.00;101096.34;5205740;28;20079;-80
2022/09/23 04:59:21;;;;;;;2.85;1.52;;;9.60;99.90;;;9.60;100.00;101102.31;5210985;28;20053;-79
2022/09/23 05:01:54;;;;;;;2.45;1.70;;;9.60;99.90;;;9.58;100.00;101104.84;5208212;28;20060;-78
2022/09/23 05:04:26;;;;;;;2.47;1.70;;;9.60;99.90;;;9.54;100.00;101095.13;5205224;28;20045;-78
2022/09/23 05:06:58;;;;;;;2.70;2.38;;;9.50;99.90;;;9.51;100.00;101102.78;5204494;28;20045;-79
2022/09/23 05:09:31;;;;;;;2.47;1.88;;;9.50;99.90;;;9.48;100.00;101100.97;5203813;28;20075;-79
2022/09/23 05:12:04;;;;;;;2.90;1.60;;;9.40;99.90;;;9.46;100.00;101094.81;5204684;28;20053;-80
2022/09/23 05:14:37;;;;;;;2.88;1.90;;;9.50;99.90;;;9.43;100.00;101110.25;5206694;28;20045;-80
2022/09/23 05:17:10;;;;;;;2.65;1.60;;;9.40;99.90;;;9.42;100.00;101102.41;5213291;28;20049;-80
2022/09/23 05:19:42;;;;;;;2.50;2.05;;;9.40;99.90;;;9.40;100.00;101099.75;5210927;28;20054;-79
2022/09/23 05:22:14;;;;;;;2.40;1.60;;;9.40;99.90;;;9.40;100.00;101104.94;5208773;28;20049;-82
2022/09/23 05:24:48;;;;;;;2.40;1.80;;;9.40;99.90;;;9.39;100.00;101097.97;5212586;28;20052;-79
2022/09/23 05:27:20;;;;;;;1.92;1.67;;;9.30;99.90;;;9.40;100.00;101098.84;5213742;28;20056;-80
2022/09/23 05:29:52;;;;;;;2.58;1.77;;;9.40;99.90;;;9.42;100.00;101092.00;5214996;28;20029;-80
2022/09/23 05:32:25;;;;;;;2.55;1.70;;;9.40;99.90;;;9.43;100.00;101094.66;5213178;28;20064;-80
2022/09/23 05:34:57;;;;;;;3.72;1.73;;;9.40;99.90;;;9.45;100.00;101093.03;5211067;28;20053;-81
2022/09/23 05:37:30;;;;;;;2.53;1.80;;;9.40;99.90;;;9.46;100.00;101089.59;5213316;28;20038;-78
2022/09/23 05:40:04;;;;;;;2.67;1.70;;;9.40;99.90;;;9.47;100.00;101093.09;5214321;28;20045;-78
2022/09/23 05:42:36;;;;;;;3.08;1.85;;;9.40;99.90;;;9.47;100.00;101080.97;5211883;28;20049;-79
2022/09/23 05:45:09;;;;;;;3.58;2.00;;;9.40;99.90;;;9.50;100.00;101086.28;5214922;28;20046;-79
2022/09/23 05:47:42;;;;;;;2.25;1.83;;;9.50;99.90;;;9.52;100.00;101092.47;5213170;28;20033;-79
2022/09/23 05:50:15;;;;;;;3.15;1.92;;;9.50;99.90;;;9.56;100.00;101092.59;5213116;28;20053;-81
2022/09/23 05:52:47;;;;;;;2.90;1.77;;;9.50;99.90;;;9.59;100.00;101090.13;5214551;28;20041;-83
2022/09/23 05:55:20;;;;;;;3.25;1.90;;;9.50;99.90;;;9.62;100.00;101101.56;5212779;28;20046;-83
2022/09/23 05:57:52;;;;;;;3.13;1.92;;;9.60;99.90;;;9.66;100.00;101108.69;5215184;28;20045;-80
2022/09/23 06:00:24;;;;;;;2.95;1.80;;;9.60;99.90;;;9.68;100.00;101112.25;5223000;28;20057;-82
2022/09/23 06:02:56;;;;;;;2.35;1.83;;;9.60;99.90;;;9.71;100.00;101107.16;5222878;28;20051;-80
2022/09/23 06:05:29;;;;;;;3.63;2.00;;;9.70;99.90;;;9.75;100.00;101105.59;5213964;28;20088;-80
2022/09/23 06:08:02;;;;;;;3.75;2.05;;;9.70;99.90;;;9.81;100.00;101107.56;5210275;28;20091;-81
2022/09/23 06:10:38;;;;;;;3.45;2.00;;;9.80;99.90;;;9.90;100.00;101108.81;5207973;28;20452;-81
2022/09/23 06:13:11;;;;;;;4.15;2.00;;;9.80;99.90;;;10.15;100.00;101104.66;5324683;22;20026;-58
2022/09/23 06:15:43;;;;;;;4.55;2.40;;;10.10;99.90;;;10.51;100.00;101106.19;5249763;28;20049;-59
2022/09/23 06:18:16;;;;;;;4.88;2.50;;;10.40;99.90;;;10.95;100.00;101104.41;5221090;28;20587;-58
2022/09/23 06:20:48;;;;;;;3.65;2.38;;;10.70;99.90;;;11.37;100.00;101106.84;5227527;28;20049;-58
2022/09/23 06:23:20;;;;;;;4.68;2.33;;;11.10;99.90;;;11.76;100.00;101109.13;5227467;28;20103;-57
2022/09/23 06:25:53;;;;;;;4.65;2.35;;;11.50;99.90;;;12.06;100.00;101110.22;5227859;28;20049;-59
2022/09/23 06:28:31;;;;;;;3.42;2.22;;;11.80;99.90;;;12.18;100.00;101099.25;5227274;28;20049;-57
2022/09/23 06:31:07;;;;;;;5.20;2.20;;;12.00;99.90;;;12.26;100.00;101102.09;5208916;28;20056;-57
2022/09/23 06:33:39;;;;;;;2.38;1.90;;;12.10;99.90;;;12.36;100.00;101097.25;5225998;28;20072;-56
2022/09/23 06:36:13;;;;;;;5.40;2.45;;;12.20;99.90;;;12.48;100.00;101099.38;5226936;28;20045;-58
2022/09/23 06:38:48;;;;;;;3.53;2.10;;;12.30;99.90;;;12.69;100.00;101105.25;5226452;28;20159;-58
2022/09/23 06:41:21;;;;;;;4.45;2.63;;;12.50;99.90;;;13.00;100.00;101104.47;5227298;28;20543;-58
2022/09/23 06:43:53;;;;;;;6.65;3.85;;;12.70;99.90;;;13.29;100.00;101107.97;5226914;28;20040;-56
2022/09/23 06:46:25;;;;;;;4.65;2.40;;;13.00;99.90;;;13.54;99.83;101106.03;5226938;28;20049;-57
2022/09/23 06:48:58;;;;;;;4.97;2.42;;;13.20;99.90;;;13.73;98.45;101108.31;5226594;28;20045;-58
2022/09/23 06:51:30;;;;;;;5.53;2.30;;;13.40;99.90;;;13.89;96.85;101103.47;5226834;28;20075;-57
2022/09/23 06:54:02;;;;;;;3.78;2.10;;;13.60;99.90;;;14.03;95.08;101107.38;5226803;28;20043;-57
2022/09/23 06:56:35;;;;;;;4.05;2.30;;;13.70;99.90;;;14.20;93.93;101108.66;5226607;28;20048;-58
2022/09/23 06:59:11;;;;;;;3.45;2.10;;;13.90;99.90;;;14.40;91.64;101102.16;5226769;28;20110;-61
2022/09/23 07:01:46;;;;;;;2.92;1.67;;;14.10;99.90;;;14.58;89.98;101108.75;5227100;28;20048;-58
2022/09/23 07:04:18;;;;;;;4.00;1.88;;;14.30;99.40;;;14.73;88.33;101109.09;5227084;28;20120;-62
2022/09/23 07:06:50;;;;;;;3.50;2.00;;;14.40;98.70;;;14.90;87.08;101112.09;5226880;28;20049;-60
2022/09/23 07:09:22;;;;;;;2.17;1.70;;;14.60;98.30;;;15.14;85.58;101120.53;5227040;28;20098;-58
2022/09/23 07:11:55;;;;;;;2.65;1.80;;;14.80;97.80;;;15.45;84.26;101124.69;5227011;28;20049;-58
2022/09/23 07:14:27;;;;;;;3.97;1.92;;;15.00;97.20;;;15.64;82.38;101115.41;5226495;28;20037;-58
2022/09/23 07:16:59;;;;;;;2.50;1.65;;;15.20;96.40;;;15.76;81.71;101124.41;5226187;28;20525;-59
2022/09/23 07:19:34;;;;;;;2.75;1.60;;;15.40;95.90;;;15.93;82.48;101123.88;5226334;28;20091;-62
2022/09/23 07:22:06;;;;;;;;;;;15.50;96.10;;;16.27;82.41;101120.06;5226579;28;20045;-62
2022/09/23 07:24:38;;;;;;;1.92;1.63;;;15.80;96.00;;;16.59;80.35;101111.81;5226240;28;20365;-61
2022/09/23 07:27:13;;;;;;;4.22;1.63;;;16.10;95.20;;;16.85;79.39;101120.13;5226183;28;20052;-61
2022/09/23 07:29:45;;;;;;;;;;;16.40;94.50;;;16.93;77.88;101121.09;5226562;28;20049;-59
2022/09/23 07:32:17;;;;;;;2.88;1.75;;;16.50;93.70;;;17.02;77.66;101121.25;5225769;28;20608;-61
2022/09/23 07:34:50;;;;;;;4.55;1.80;;;16.60;93.40;;;17.23;76.91;101122.41;5225712;28;20397;-61
2022/09/23 07:37:22;;;;;;;2.78;1.55;;;16.80;93.00;;;17.44;76.40;101112.13;5225777;28;20047;-61
2022/09/23 07:39:54;;;;;;;3.28;1.70;;;17.00;92.70;;;17.72;75.20;101117.72;5225611;28;20045;-61
2022/09/23 07:42:28;;;;;;;2.45;1.60;;;17.20;92.10;;;17.96;73.92;101117.97;5225600;28;20051;-59
2022/09/23 07:45:01;;;;;;;3.28;1.63;;;17.40;91.60;;;18.09;72.77;101117.22;5225261;28;20045;-58
2022/09/23 07:47:33;;;;;;;4.00;1.55;;;17.60;90.60;;;18.26;72.60;101113.88;5225342;28;20049;-59
2022/09/23 07:50:06;;;;;;;2.50;1.88;;;17.70;90.30;;;18.46;71.80;101112.28;5225866;28;20045;-58
2022/09/23 07:52:39;;;;;;;2.75;1.77;;;17.90;89.70;;;18.66;70.49;101118.59;5226061;28;20502;-60
2022/09/23 07:55:13;;;;;;;3.13;1.75;;;18.00;88.10;;;18.81;70.42;101119.56;5207980;28;20049;-57
2022/09/23 07:57:46;;;;;;;1.65;1.30;;;18.20;87.60;;;19.01;69.53;101120.56;5225820;28;20056;-57
2022/09/23 08:00:19;;;;;;;2.75;1.70;;;18.30;86.70;;;19.20;68.35;101117.16;5225479;28;20044;-58
2022/09/23 08:02:52;;;;;;;2.97;1.63;;;18.40;85.30;;;19.33;68.10;101117.19;5207782;28;20045;-59
2022/09/23 08:05:26;;;;;;;1.70;1.30;;;18.50;84.50;;;19.38;67.81;101112.81;5207761;28;20493;-58
2022/09/23 08:07:58;;;;;;;3.60;1.75;;;18.50;84.10;;;19.45;67.16;101125.19;5225723;28;20052;-58
2022/09/23 08:10:31;;;;;;;3.58;1.70;;;18.60;82.70;;;19.42;67.37;101122.50;5225430;28;20052;-58
2022/09/23 08:13:04;;;;;;;3.92;1.85;;;18.60;83.20;;;19.51;67.64;101130.50;5225364;28;20041;-57
2022/09/23 08:15:37;;;;;;;3.10;1.58;;;18.60;83.40;;;19.62;67.41;101119.97;5207597;28;20140;-59
2022/09/23 08:18:09;;;;;;;3.45;1.80;;;18.60;83.10;;;19.75;66.78;101116.47;5225493;28;20044;-59
2022/09/23 08:20:44;;;;;;;1.88;1.60;;;18.60;82.80;;;19.96;67.06;101116.53;5225306;28;20045;-59
2022/09/23 08:23:18;;;;;;;4.10;1.75;;;18.70;83.20;;;20.39;66.07;101120.97;5225632;28;20078;-60
2022/09/23 08:25:58;;;;;;;5.63;1.92;;;18.90;82.60;;;20.79;64.21;101114.75;5225249;28;20087;-59
2022/09/23 08:28:33;;;;;;;4.57;1.42;;;19.30;80.90;;;21.13;62.82;101109.38;5224983;28;20478;-57
2022/09/23 08:31:07;;;;;;;3.60;1.88;;;19.60;79.10;;;21.38;61.98;101107.53;5225148;28;20048;-59
2022/09/23 08:33:39;;;;;;;4.40;2.03;;;19.80;77.50;;;21.59;61.59;101107.44;5225171;28;20045;-58
2022/09/23 08:36:11;;;;;;;2.42;1.63;;;20.00;77.00;;;21.63;61.22;101102.97;5225140;28;20513;-61
2022/09/23 08:38:43;;;;;;;3.15;1.92;;;20.10;76.00;;;21.63;61.72;101103.84;5224820;28;20048;-60
2022/09/23 08:41:27;;;;;;;2.58;1.52;;;20.30;76.10;;;21.65;61.79;101103.88;5225028;28;20052;-60
2022/09/23 08:44:05;;;;;;;2.90;1.58;;;20.30;75.80;;;21.60;61.01;101109.19;5224962;28;20041;-59
2022/09/23 08:46:41;;;;;;;2.50;1.50;;;20.30;74.70;;;21.34;61.59;101104.03;5225264;28;20055;-59
2022/09/23 08:49:24;;;;;;;3.95;1.90;;;20.20;74.60;;;20.95;62.17;101102.38;5224784;28;20055;-59
2022/09/23 08:51:57;;;;;;;4.50;1.80;;;20.00;74.50;;;20.45;62.90;101097.16;5224911;28;20045;-59
2022/09/23 08:54:31;;;;;;;3.45;1.50;;;19.70;74.70;;;20.10;64.39;101092.72;5225010;28;20049;-57
2022/09/23 08:57:05;;;;;;;3.35;1.63;;;19.40;75.90;;;19.79;65.52;101091.81;5224867;28;20044;-57
2022/09/23 08:59:43;;;;;;;2.72;1.48;;;19.10;76.80;;;19.45;66.20;101090.81;5224454;28;20425;-59
2022/09/23 09:02:19;;;;;;;3.38;1.50;;;18.90;77.20;;;19.10;67.71;101094.19;5225133;28;20060;-57
2022/09/23 09:04:55;;;;;;;3.00;1.80;;;18.60;79.10;;;18.91;69.34;101100.28;5225037;28;20033;-58
2022/09/23 09:07:31;;;;;;;2.63;1.38;;;18.40;80.10;;;18.72;70.13;101090.47;5224995;28;20055;-58
2022/09/23 09:10:11;;;;;;;1.98;1.38;;;18.20;81.00;;;18.62;70.95;101093.00;5224139;28;20045;-60
2022/09/23 09:12:45;;;;;;;3.58;2.08;;;18.10;81.80;;;18.54;71.74;101091.19;5223644;28;20502;-59
2022/09/23 09:15:22;;;;;;;2.63;1.80;;;18.00;82.60;;;18.43;72.36;101091.13;5224653;28;20449;-60
2022/09/23 09:18:01;;;;;;;2.75;1.90;;;18.00;83.40;;;18.37;73.18;101094.59;5224925;28;20533;-57
2022/09/23 09:20:40;;;;;;;2.47;1.70;;;17.90;84.20;;;18.37;73.50;101099.88;5224407;28;20056;-60
2022/09/23 09:23:22;;;;;;;2.58;1.60;;;17.90;84.70;;;18.33;73.76;101084.91;5224701;28;20055;-58
2022/09/23 09:25:59;;;;;;;3.58;1.70;;;17.90;85.10;;;18.28;73.99;101077.81;5224937;28;20636;-57
2022/09/23 09:28:39;;;;;;;2.50;1.42;;;17.80;85.30;;;18.28;74.89;101077.81;5224415;28;20067;-58
2022/09/23 09:31:26;;;;;;;2.20;1.50;;;17.80;86.20;;;18.33;75.70;101076.97;5224716;28;20409;-62
2022/09/23 09:34:05;;;;;;;2.33;1.45;;;17.80;87.30;;;18.53;76.95;101082.41;5224456;28;20045;-63
2022/09/23 09:36:45;;;;;;;3.05;2.13;;;18.00;88.90;;;18.74;76.46;101083.44;5206751;28;20143;-62
2022/09/23 09:39:18;;;;;;;3.20;1.60;;;18.20;88.80;;;18.89;75.69;101083.53;5224264;28;20045;-61
2022/09/23 09:41:54;;;;;;;1.83;1.23;;;18.30;87.90;;;19.03;75.49;101081.81;5224947;28;20084;-62
2022/09/23 09:44:34;;;;;;;3.80;1.90;;;18.50;87.80;;;19.12;74.60;101079.25;5224483;28;20049;-63
2022/09/23 09:47:25;;;;;;;4.63;2.05;;;18.60;87.20;;;19.16;74.53;101083.66;5224765;28;20497;-63
2022/09/23 09:50:06;;;;;;;3.47;1.48;;;18.60;86.80;;;19.34;73.89;101066.09;5224220;28;20607;-61
2022/09/23 09:52:42;;;;;;;2.55;1.80;;;18.80;86.30;;;19.51;73.78;101059.09;5224465;28;20041;-59
2022/09/23 09:55:28;;;;;;;3.65;1.42;;;18.90;86.20;;;19.60;73.44;101053.88;5224558;28;20037;-60
2022/09/23 09:58:04;;;;;;;3.53;1.52;;;19.00;85.80;;;19.71;73.56;101062.72;5224044;28;20041;-61
2022/09/23 10:00:46;;;;;;;4.80;1.80;;;19.10;85.90;;;19.76;73.20;101055.66;5223812;28;20417;-61
2022/09/23 10:03:47;;;;;;;1.98;1.40;;;19.20;85.40;;;19.77;72.97;101052.13;5224091;28;20125;-59
2022/09/23 10:06:23;;;;;;;2.60;1.65;;;19.30;85.00;;;19.87;72.60;101052.13;5166179;28;20057;-61
2022/09/23 10:09:13;;;;;;;2.58;1.67;;;19.30;84.60;;;19.84;72.48;101049.50;5206947;28;20053;-60
2022/09/23 10:12:14;;;;;;;1.70;1.30;;;19.40;84.30;;;19.89;73.20;101050.41;5227608;28;20044;-59
2022/09/23 10:14:50;;;;;;;3.03;1.52;;;19.40;84.80;;;19.98;72.76;101050.38;5226940;28;20082;-60
2022/09/23 10:17:31;;;;;;;3.05;1.52;;;19.40;84.60;;;20.01;73.24;101045.06;5227465;28;20324;-61
2022/09/23 10:20:09;;;;;;;4.65;1.90;;;19.50;84.80;;;20.11;73.92;101045.97;5226726;28;20033;-61
2022/09/23 10:22:42;;;;;;;3.20;1.38;;;19.60;85.50;;;20.09;73.49;101045.09;5209331;28;20049;-59
2022/09/23 10:25:20;;;;;;;2.92;1.88;;;19.60;85.00;;;20.14;73.15;101046.84;5227227;28;20071;-60
2022/09/23 10:27:52;;;;;;;3.42;1.55;;;19.60;84.60;;;20.22;72.56;101050.38;5227241;28;20067;-60
2022/09/23 10:30:27;;;;;;;2.83;1.38;;;19.60;84.30;;;20.33;72.64;101051.22;5208683;28;20068;-60
2022/09/23 10:33:00;;;;;;;3.20;1.58;;;19.70;84.40;;;20.44;71.84;101039.75;5209538;28;20067;-55
2022/09/23 10:35:33;;;;;;;1.98;1.30;;;19.80;83.70;;;20.48;70.98;101041.56;5227092;28;20059;-61
2022/09/23 10:38:08;;;;;;;1.50;1.20;;;19.90;82.80;;;20.52;70.58;101041.53;5227136;28;20064;-60
2022/09/23 10:46:40;;;;;;;2.00;1.40;;;20.20;82.40;;;21.10;70.06;101037.81;5226784;28;20045;-60
2022/09/23 10:49:52;;;;;;;2.03;1.40;;;20.40;81.80;;;21.36;68.84;101030.63;5226805;28;20380;-65
2022/09/23 10:52:44;;;;;;;2.63;1.50;;;20.60;80.70;;;21.57;68.03;101034.94;5227042;28;20045;-62
2022/09/23 10:55:31;;;;;;;2.33;1.60;;;20.80;79.80;;;21.67;67.84;101027.81;5226494;28;20048;-62